Time;durP1;ratioP1;P1;durP2;ratioP2;P2;SDS_P1;SDS_P2;PMS_P1;PMS_P2;Temp;Humidity;BMP_temperature;BMP_pressure;BME280_temperature;BME280_humidity;BME280_pressure;Samples;Min_cycle;Max_cycle;Signal;HPM_P1;HPM_P2
2024/04/14 00:01:55;;;;;;;0.93;0.70;;;14.30;76.80;;;;;;4957424;28;20062;-76
2024/04/14 00:04:20;;;;;;;0.90;0.60;;;14.30;76.80;;;;;;4957193;28;20031;-76
2024/04/14 00:06:46;;;;;;;0.85;0.40;;;14.20;76.80;;;;;;4974588;28;20045;-76
2024/04/14 00:09:12;;;;;;;0.88;0.50;;;14.20;76.90;;;;;;4956878;28;20035;-76
2024/04/14 00:11:37;;;;;;;0.47;0.40;;;14.10;76.90;;;;;;4957741;28;20421;-76
2024/04/14 00:14:03;;;;;;;1.33;0.55;;;14.10;76.90;;;;;;4974235;28;20117;-76
2024/04/14 00:16:29;;;;;;;0.93;0.40;;;14.20;77.00;;;;;;4940847;28;20050;-76
2024/04/14 00:18:55;;;;;;;0.60;0.57;;;14.10;77.10;;;;;;4974362;28;20039;-76
2024/04/14 00:21:22;;;;;;;0.57;0.30;;;14.10;77.20;;;;;;4957130;28;20048;-76
2024/04/14 00:23:48;;;;;;;1.15;0.60;;;14.00;77.20;;;;;;4974270;28;20094;-76
2024/04/14 00:26:14;;;;;;;0.70;0.50;;;13.90;77.20;;;;;;4973942;28;20047;-76
2024/04/14 00:28:40;;;;;;;0.85;0.57;;;13.90;77.30;;;;;;4957436;28;20042;-75
2024/04/14 00:31:06;;;;;;;0.43;0.32;;;13.90;77.30;;;;;;4974528;28;20489;-76
2024/04/14 00:33:34;;;;;;;0.68;0.50;;;13.90;77.30;;;;;;4956858;28;20558;-76
2024/04/14 00:36:02;;;;;;;0.43;0.30;;;13.80;77.40;;;;;;4973941;28;20461;-75
2024/04/14 00:38:27;;;;;;;1.98;0.45;;;13.80;77.40;;;;;;4974508;28;20043;-77
2024/04/14 00:40:53;;;;;;;0.40;0.40;;;13.80;77.40;;;;;;4957130;28;20114;-76
2024/04/14 00:43:20;;;;;;;0.40;0.40;;;13.80;77.50;;;;;;4956838;28;20118;-76
2024/04/14 00:45:46;;;;;;;0.50;0.50;;;13.70;77.60;;;;;;4956847;28;20046;-76
2024/04/14 00:48:13;;;;;;;0.38;0.35;;;13.70;77.60;;;;;;4940488;28;20058;-76
2024/04/14 00:50:40;;;;;;;0.75;0.40;;;13.70;77.70;;;;;;4957104;28;20046;-76
2024/04/14 00:53:08;;;;;;;0.55;0.47;;;13.70;77.80;;;;;;4965994;28;20037;-75
2024/04/14 00:55:35;;;;;;;0.43;0.40;;;13.60;77.80;;;;;;4956530;28;20461;-76
2024/04/14 00:58:02;;;;;;;1.00;0.43;;;13.60;77.80;;;;;;4974231;28;20055;-76
2024/04/14 01:00:29;;;;;;;1.15;0.52;;;13.60;77.90;;;;;;4973885;28;20094;-76
2024/04/14 01:02:55;;;;;;;0.82;0.50;;;13.50;77.90;;;;;;4974130;28;20475;-76
2024/04/14 01:05:22;;;;;;;0.40;0.40;;;13.50;78.00;;;;;;4955799;28;20045;-76
2024/04/14 01:07:50;;;;;;;0.80;0.50;;;13.50;78.10;;;;;;4973238;28;20054;-76
2024/04/14 01:10:16;;;;;;;1.45;0.60;;;13.40;78.20;;;;;;4940077;28;20571;-76
2024/04/14 01:12:42;;;;;;;0.20;0.20;;;13.50;78.30;;;;;;4956257;28;20162;-76
2024/04/14 01:15:08;;;;;;;0.93;0.57;;;13.50;78.30;;;;;;4973374;28;20117;-76
2024/04/14 01:17:33;;;;;;;0.93;0.65;;;13.40;78.30;;;;;;4973920;28;20569;-76
2024/04/14 01:19:59;;;;;;;1.15;0.52;;;13.40;78.20;;;;;;4973465;28;20041;-76
2024/04/14 01:22:25;;;;;;;0.40;0.40;;;13.40;78.30;;;;;;4973615;28;20913;-76
2024/04/14 01:24:51;;;;;;;0.55;0.40;;;13.40;78.40;;;;;;4955643;28;20035;-76
2024/04/14 01:27:16;;;;;;;1.20;0.65;;;13.30;78.30;;;;;;4973126;28;20142;-76
2024/04/14 01:29:42;;;;;;;1.17;0.60;;;13.30;78.40;;;;;;4956410;28;20553;-76
2024/04/14 01:32:08;;;;;;;1.17;0.50;;;13.30;78.50;;;;;;4955873;28;20499;-77
2024/04/14 01:34:34;;;;;;;1.08;0.50;;;13.30;78.60;;;;;;4955962;28;20131;-76
2024/04/14 01:36:59;;;;;;;1.10;0.60;;;13.30;78.60;;;;;;4973223;28;20042;-76
2024/04/14 01:39:25;;;;;;;1.08;0.50;;;13.30;78.60;;;;;;4973166;28;20433;-76
2024/04/14 01:41:50;;;;;;;0.98;0.55;;;13.20;78.60;;;;;;4940253;28;20038;-76
2024/04/14 01:44:16;;;;;;;0.65;0.60;;;13.20;78.60;;;;;;4973347;28;20031;-76
2024/04/14 01:46:42;;;;;;;1.13;0.60;;;13.30;78.80;;;;;;4955763;28;20090;-76
2024/04/14 01:49:07;;;;;;;2.58;0.60;;;13.20;78.90;;;;;;4973055;28;20090;-76
2024/04/14 01:51:33;;;;;;;0.50;0.43;;;13.20;78.90;;;;;;4973251;28;20038;-76
2024/04/14 01:53:59;;;;;;;0.30;0.30;;;13.20;78.90;;;;;;4973093;28;20039;-76
2024/04/14 01:56:24;;;;;;;1.08;0.40;;;13.10;78.80;;;;;;4955980;28;20035;-76
2024/04/14 01:58:50;;;;;;;1.10;0.50;;;13.20;78.90;;;;;;4955832;28;20043;-76
2024/04/14 02:01:16;;;;;;;0.38;0.38;;;13.20;78.90;;;;;;4973487;28;20045;-76
2024/04/14 02:03:42;;;;;;;1.65;0.60;;;13.20;79.10;;;;;;4972783;28;20373;-76
2024/04/14 02:06:08;;;;;;;0.73;0.52;;;13.10;79.10;;;;;;4939348;28;20035;-76
2024/04/14 02:08:33;;;;;;;0.85;0.50;;;13.10;79.20;;;;;;4939482;28;20038;-76
2024/04/14 02:11:00;;;;;;;0.80;0.50;;;13.10;79.30;;;;;;4955988;28;20030;-76
2024/04/14 02:13:27;;;;;;;1.02;0.60;;;13.10;79.30;;;;;;4972845;28;20053;-76
2024/04/14 02:15:52;;;;;;;0.90;0.70;;;13.10;79.30;;;;;;4972620;28;20047;-76
2024/04/14 02:18:18;;;;;;;0.73;0.50;;;13.10;79.40;;;;;;4972918;28;20381;-76
2024/04/14 02:20:44;;;;;;;0.75;0.52;;;13.00;79.30;;;;;;4972574;28;20038;-77
2024/04/14 02:23:10;;;;;;;1.15;0.50;;;13.10;79.40;;;;;;4955474;28;20031;-76
2024/04/14 02:25:35;;;;;;;0.43;0.43;;;13.00;79.40;;;;;;4939089;28;20054;-77
2024/04/14 02:28:01;;;;;;;0.85;0.60;;;13.00;79.50;;;;;;4955954;28;20049;-76
2024/04/14 02:30:27;;;;;;;1.23;0.35;;;13.00;79.50;;;;;;4972387;28;20023;-76
2024/04/14 02:32:53;;;;;;;1.92;0.52;;;13.00;79.50;;;;;;4955099;28;20030;-76
2024/04/14 02:35:18;;;;;;;1.15;0.50;;;13.00;79.50;;;;;;4972596;28;20034;-76
2024/04/14 02:37:44;;;;;;;0.88;0.40;;;13.00;79.40;;;;;;4954735;28;20035;-76
2024/04/14 02:40:11;;;;;;;1.55;0.52;;;13.00;79.20;;;;;;4972229;28;20043;-77
2024/04/14 02:42:37;;;;;;;0.65;0.40;;;13.00;79.10;;;;;;4972634;28;20078;-76
2024/04/14 02:45:03;;;;;;;0.55;0.40;;;13.00;79.00;;;;;;4955298;28;20035;-76
2024/04/14 02:47:29;;;;;;;1.85;0.22;;;13.00;78.90;;;;;;4955069;28;20039;-76
2024/04/14 02:49:55;;;;;;;0.88;0.50;;;12.90;78.90;;;;;;4954964;28;20090;-76
2024/04/14 02:52:21;;;;;;;1.45;0.50;;;12.90;78.90;;;;;;4954823;28;20035;-76
2024/04/14 02:54:47;;;;;;;1.83;0.70;;;12.90;78.90;;;;;;4954846;28;20560;-77
2024/04/14 02:57:13;;;;;;;2.50;0.32;;;12.90;78.90;;;;;;4972178;28;20038;-76
2024/04/14 02:59:39;;;;;;;0.60;0.47;;;12.80;78.80;;;;;;4972635;28;20123;-76
2024/04/14 03:02:05;;;;;;;0.55;0.28;;;12.80;78.80;;;;;;4972524;28;21018;-77
2024/04/14 03:04:31;;;;;;;0.38;0.35;;;12.80;78.80;;;;;;4954593;28;20478;-76
2024/04/14 03:06:57;;;;;;;0.90;0.32;;;12.80;78.80;;;;;;4954931;28;20049;-76
2024/04/14 03:09:22;;;;;;;0.32;0.30;;;12.80;78.80;;;;;;4972455;28;20042;-76
2024/04/14 03:11:48;;;;;;;0.47;0.47;;;12.80;78.70;;;;;;4972463;28;20124;-76
2024/04/14 03:14:14;;;;;;;1.13;0.50;;;12.80;78.60;;;;;;4972139;28;20027;-77
2024/04/14 03:16:39;;;;;;;1.17;0.30;;;12.80;78.60;;;;;;4971961;28;20070;-76
2024/04/14 03:19:05;;;;;;;1.42;0.60;;;12.70;78.40;;;;;;4954560;28;20031;-76
2024/04/14 03:21:31;;;;;;;0.30;0.30;;;12.70;78.40;;;;;;4954710;28;20047;-76
2024/04/14 03:23:57;;;;;;;0.80;0.40;;;12.60;78.40;;;;;;4971876;28;20118;-76
2024/04/14 03:26:23;;;;;;;0.47;0.30;;;12.60;78.40;;;;;;4971840;28;20425;-76
2024/04/14 03:28:48;;;;;;;0.95;0.30;;;12.60;78.40;;;;;;4972207;28;20139;-76
2024/04/14 03:31:14;;;;;;;0.93;0.30;;;12.60;78.40;;;;;;4957583;28;20043;-76
2024/04/14 03:33:39;;;;;;;0.55;0.30;;;12.50;78.50;;;;;;4957798;28;20370;-76
2024/04/14 03:36:07;;;;;;;0.63;0.30;;;12.50;78.40;;;;;;4942170;28;20077;-76
2024/04/14 03:38:33;;;;;;;1.45;0.30;;;12.50;78.40;;;;;;4975550;28;20125;-76
2024/04/14 03:40:59;;;;;;;0.45;0.30;;;12.50;78.40;;;;;;4975249;28;20043;-76
2024/04/14 03:43:25;;;;;;;0.20;0.20;;;12.50;78.40;;;;;;4942023;28;20034;-76
2024/04/14 03:45:51;;;;;;;0.28;0.20;;;12.50;78.50;;;;;;4975332;28;20385;-76
2024/04/14 03:48:17;;;;;;;0.55;0.30;;;12.50;78.50;;;;;;4958209;28;20043;-76
2024/04/14 03:50:45;;;;;;;1.13;0.45;;;12.40;78.50;;;;;;4974996;28;20039;-76
2024/04/14 03:53:11;;;;;;;1.15;0.50;;;12.40;78.60;;;;;;4957495;28;20486;-76
2024/04/14 03:55:37;;;;;;;0.10;0.10;;;12.30;78.60;;;;;;4974721;28;20042;-76
2024/04/14 03:58:02;;;;;;;0.80;0.32;;;12.30;78.60;;;;;;4974883;28;20077;-76
2024/04/14 04:00:28;;;;;;;0.80;0.32;;;12.30;78.70;;;;;;4925267;28;20121;-76
2024/04/14 04:02:54;;;;;;;0.43;0.20;;;12.30;78.80;;;;;;4941353;28;20050;-76
2024/04/14 04:05:20;;;;;;;1.02;0.20;;;12.20;78.90;;;;;;4941806;28;20067;-76
2024/04/14 04:07:48;;;;;;;0.50;0.28;;;12.20;78.90;;;;;;4974572;28;20039;-76
2024/04/14 04:10:15;;;;;;;0.32;0.28;;;12.20;78.90;;;;;;4957399;28;20034;-77
2024/04/14 04:12:41;;;;;;;0.85;0.25;;;12.10;78.90;;;;;;4974764;28;20035;-76
2024/04/14 04:15:07;;;;;;;0.57;0.22;;;12.10;79.00;;;;;;4974708;28;20535;-76
2024/04/14 04:17:33;;;;;;;0.85;0.30;;;12.10;79.00;;;;;;4957309;28;20031;-76
2024/04/14 04:19:59;;;;;;;0.20;0.20;;;12.10;79.00;;;;;;4941482;28;20050;-76
2024/04/14 04:22:24;;;;;;;0.85;0.22;;;12.00;79.00;;;;;;4974489;28;20041;-77
2024/04/14 04:24:50;;;;;;;0.43;0.20;;;12.10;79.10;;;;;;4974512;28;20047;-76
2024/04/14 04:27:17;;;;;;;1.45;0.30;;;12.00;79.10;;;;;;4957436;28;20035;-77
2024/04/14 04:29:42;;;;;;;0.30;0.20;;;11.90;79.20;;;;;;4957230;28;20047;-77
2024/04/14 04:32:08;;;;;;;1.15;0.30;;;11.90;79.20;;;;;;4957730;28;20481;-76
2024/04/14 04:34:34;;;;;;;0.90;0.30;;;11.90;79.30;;;;;;4941026;28;20536;-76
2024/04/14 04:36:59;;;;;;;0.98;0.28;;;11.90;79.40;;;;;;4974559;28;20125;-76
2024/04/14 04:39:25;;;;;;;0.98;0.30;;;11.80;79.40;;;;;;4974476;28;20035;-76
2024/04/14 04:41:51;;;;;;;0.28;0.28;;;11.80;79.50;;;;;;4974118;28;20043;-77
2024/04/14 04:44:16;;;;;;;0.80;0.30;;;11.80;79.60;;;;;;4940800;28;20027;-77
2024/04/14 04:46:42;;;;;;;2.47;0.25;;;11.70;79.60;;;;;;4956648;28;20039;-77
2024/04/14 04:49:08;;;;;;;1.80;0.40;;;11.70;79.60;;;;;;4957009;28;20055;-76
2024/04/14 04:51:33;;;;;;;0.47;0.20;;;11.70;79.60;;;;;;4956825;28;20039;-77
2024/04/14 04:53:59;;;;;;;0.28;0.28;;;11.70;79.70;;;;;;4956739;28;20394;-76
2024/04/14 04:56:25;;;;;;;0.65;0.38;;;11.60;79.60;;;;;;4974564;28;20183;-77
2024/04/14 04:58:51;;;;;;;3.20;0.30;;;11.60;79.60;;;;;;4974462;28;20381;-77
2024/04/14 05:01:16;;;;;;;0.85;0.40;;;11.60;79.60;;;;;;4974314;28;20057;-76
2024/04/14 05:03:42;;;;;;;0.80;0.20;;;11.70;79.60;;;;;;4974017;28;20039;-76
2024/04/14 05:06:08;;;;;;;0.28;0.20;;;11.70;79.60;;;;;;4956690;28;20185;-76
2024/04/14 05:08:34;;;;;;;0.52;0.20;;;11.70;79.50;;;;;;4973868;28;20126;-76
2024/04/14 05:11:00;;;;;;;1.65;0.30;;;11.70;79.60;;;;;;4956353;28;20039;-76
2024/04/14 05:13:27;;;;;;;0.20;0.20;;;11.70;79.50;;;;;;4956926;28;20035;-76
2024/04/14 05:15:53;;;;;;;0.20;0.20;;;11.60;79.50;;;;;;4956624;28;20034;-76
2024/04/14 05:18:20;;;;;;;0.25;0.22;;;11.70;79.50;;;;;;4956338;28;20057;-76
2024/04/14 05:20:46;;;;;;;0.22;0.13;;;11.70;79.50;;;;;;4956489;28;20035;-76
2024/04/14 05:23:12;;;;;;;0.17;0.17;;;11.70;79.50;;;;;;4956735;28;20190;-76
2024/04/14 05:25:40;;;;;;;0.85;0.28;;;11.70;79.40;;;;;;4973957;28;20548;-77
2024/04/14 05:28:06;;;;;;;0.63;0.30;;;11.70;79.40;;;;;;4973913;28;20031;-76
2024/04/14 05:30:32;;;;;;;0.38;0.20;;;11.70;79.40;;;;;;4973836;28;20037;-76
2024/04/14 05:32:57;;;;;;;0.75;0.30;;;11.70;79.30;;;;;;4973781;28;20511;-76
2024/04/14 05:35:23;;;;;;;0.35;0.20;;;11.80;79.40;;;;;;4973431;28;20035;-76
2024/04/14 05:37:49;;;;;;;0.22;0.22;;;11.70;79.30;;;;;;4940003;28;20039;-76
2024/04/14 05:40:15;;;;;;;1.48;0.20;;;11.80;79.40;;;;;;4973497;28;20122;-76
2024/04/14 05:42:41;;;;;;;0.98;0.20;;;11.80;79.40;;;;;;4940167;28;20030;-76
2024/04/14 05:45:08;;;;;;;0.93;0.20;;;11.80;79.30;;;;;;4955965;28;20046;-76
2024/04/14 05:47:34;;;;;;;0.65;0.30;;;11.80;79.40;;;;;;4973230;28;20085;-76
2024/04/14 05:49:59;;;;;;;0.20;0.20;;;11.80;79.40;;;;;;4956051;28;20034;-76
2024/04/14 05:52:25;;;;;;;0.30;0.30;;;11.80;79.30;;;;;;4955327;28;20041;-76
2024/04/14 05:54:51;;;;;;;1.55;0.30;;;11.80;79.40;;;;;;4973228;28;20102;-76
2024/04/14 05:57:17;;;;;;;0.30;0.30;;;11.80;79.40;;;;;;4955803;28;20050;-76
2024/04/14 05:59:45;;;;;;;0.10;0.10;;;11.90;79.40;;;;;;4955838;28;20066;-77
2024/04/14 06:02:11;;;;;;;0.45;0.17;;;11.90;79.40;;;;;;4973027;28;20342;-76
2024/04/14 06:04:37;;;;;;;0.20;0.20;;;11.90;79.50;;;;;;4955693;28;20572;-77
2024/04/14 06:07:03;;;;;;;1.25;0.22;;;11.90;79.40;;;;;;4939530;28;20133;-77
2024/04/14 06:09:28;;;;;;;0.20;0.20;;;11.90;79.40;;;;;;4955242;28;20039;-76
2024/04/14 06:11:55;;;;;;;0.43;0.22;;;11.90;79.40;;;;;;4956239;28;20023;-77
2024/04/14 06:14:22;;;;;;;0.20;0.20;;;12.00;79.40;;;;;;4878723;29;20035;-76
2024/04/14 06:16:48;;;;;;;0.30;0.22;;;12.00;79.40;;;;;;4894512;29;20056;-77
2024/04/14 06:19:15;;;;;;;0.55;0.30;;;12.00;79.40;;;;;;4894552;29;20040;-77
2024/04/14 06:21:41;;;;;;;0.68;0.20;;;12.00;79.30;;;;;;4894373;29;20048;-77
2024/04/14 06:24:07;;;;;;;0.30;0.30;;;12.00;79.30;;;;;;4878799;29;20128;-76
2024/04/14 06:26:33;;;;;;;0.20;0.20;;;12.00;79.30;;;;;;4878952;29;20052;-77
2024/04/14 06:28:58;;;;;;;0.47;0.20;;;12.00;79.40;;;;;;4894047;29;20048;-76
2024/04/14 06:31:24;;;;;;;0.70;0.32;;;12.10;79.40;;;;;;4894346;29;20045;-76
2024/04/14 06:33:50;;;;;;;0.30;0.20;;;12.10;80.00;;;;;;4894691;29;20111;-76
2024/04/14 06:36:16;;;;;;;0.55;0.25;;;12.10;79.40;;;;;;4894201;29;20505;-77
2024/04/14 06:38:44;;;;;;;0.57;0.30;;;12.10;79.40;;;;;;4894351;29;20060;-77
2024/04/14 06:41:10;;;;;;;1.27;0.40;;;12.10;79.30;;;;;;4894548;29;20072;-76
2024/04/14 06:43:36;;;;;;;0.75;0.30;;;12.20;79.30;;;;;;4894274;29;20045;-77
2024/04/14 06:46:02;;;;;;;0.98;0.22;;;12.20;79.30;;;;;;4955175;28;20145;-77
2024/04/14 06:48:28;;;;;;;1.33;0.28;;;12.20;79.40;;;;;;4938986;28;20035;-77
2024/04/14 06:50:53;;;;;;;0.30;0.20;;;12.20;79.40;;;;;;4923073;28;20058;-77
2024/04/14 06:53:21;;;;;;;0.52;0.17;;;12.20;79.30;;;;;;4972310;28;20062;-77
2024/04/14 06:55:47;;;;;;;0.20;0.20;;;12.30;79.40;;;;;;4954820;28;20122;-76
2024/04/14 06:58:14;;;;;;;1.48;0.55;;;12.40;79.40;;;;;;4939253;28;20035;-76
2024/04/14 07:00:40;;;;;;;1.88;0.40;;;12.30;79.40;;;;;;4972747;28;20462;-76
2024/04/14 07:03:05;;;;;;;1.75;0.30;;;12.40;79.30;;;;;;4954874;28;20497;-77
2024/04/14 07:05:31;;;;;;;0.40;0.35;;;12.40;79.30;;;;;;4975148;28;20034;-77
2024/04/14 07:07:57;;;;;;;1.02;0.47;;;12.40;79.20;;;;;;4958366;28;20041;-77
2024/04/14 07:10:22;;;;;;;0.90;0.40;;;12.50;79.20;;;;;;4976090;28;20062;-76
2024/04/14 07:12:48;;;;;;;0.90;0.32;;;12.50;79.20;;;;;;4958501;28;20122;-76
2024/04/14 07:15:14;;;;;;;0.85;0.30;;;12.50;79.20;;;;;;4975615;28;20054;-76
2024/04/14 07:17:39;;;;;;;0.65;0.43;;;12.60;79.10;;;;;;4958296;28;20052;-76
2024/04/14 07:20:06;;;;;;;0.40;0.30;;;12.50;79.10;;;;;;4958535;28;20381;-77
2024/04/14 07:22:31;;;;;;;0.65;0.30;;;12.70;79.10;;;;;;4942143;28;20066;-76
2024/04/14 07:24:59;;;;;;;1.02;0.40;;;12.70;79.00;;;;;;4957939;28;20073;-77
2024/04/14 07:27:25;;;;;;;1.20;0.30;;;12.70;78.80;;;;;;4975667;28;20139;-76
2024/04/14 07:29:51;;;;;;;1.73;0.57;;;12.70;78.70;;;;;;4975149;28;20066;-76
2024/04/14 07:32:16;;;;;;;0.80;0.30;;;12.70;78.70;;;;;;4958234;28;20053;-76
2024/04/14 07:34:42;;;;;;;1.58;0.30;;;12.80;78.80;;;;;;4975156;28;20046;-76
2024/04/14 07:37:08;;;;;;;1.02;0.40;;;12.80;78.70;;;;;;4958230;28;20062;-77
2024/04/14 07:39:34;;;;;;;0.70;0.28;;;12.80;79.10;;;;;;4975379;28;20481;-76
2024/04/14 07:42:04;;;;;;;0.65;0.47;;;12.80;78.70;;;;;;4975916;28;20465;-76
2024/04/14 07:44:30;;;;;;;1.42;0.30;;;12.80;78.60;;;;;;4975185;28;20499;-76
2024/04/14 07:46:55;;;;;;;0.20;0.20;;;12.90;78.60;;;;;;4975270;28;20133;-76
2024/04/14 07:49:22;;;;;;;0.45;0.30;;;12.90;78.60;;;;;;4975251;28;20198;-76
2024/04/14 07:51:47;;;;;;;0.60;0.32;;;12.90;78.60;;;;;;4975171;28;20035;-76
2024/04/14 07:54:13;;;;;;;0.38;0.20;;;13.00;78.60;;;;;;4975645;28;20105;-75
2024/04/14 07:56:39;;;;;;;0.85;0.20;;;13.00;78.50;;;;;;4974997;28;20046;-75
2024/04/14 07:59:04;;;;;;;0.82;0.50;;;13.10;78.40;;;;;;4942226;28;20039;-75
2024/04/14 08:01:31;;;;;;;0.65;0.30;;;13.10;78.20;;;;;;4957563;28;20077;-75
2024/04/14 08:03:56;;;;;;;0.50;0.35;;;13.20;78.20;;;;;;4925894;28;20130;-75
2024/04/14 08:06:22;;;;;;;1.17;0.40;;;13.20;78.20;;;;;;4957316;28;20118;-75
2024/04/14 08:08:47;;;;;;;0.68;0.40;;;13.20;78.00;;;;;;4975057;28;20090;-75
2024/04/14 08:11:13;;;;;;;0.55;0.30;;;13.30;78.00;;;;;;4957059;28;20118;-77
2024/04/14 08:13:39;;;;;;;1.08;0.40;;;13.30;77.90;;;;;;4957361;28;20033;-74
2024/04/14 08:16:06;;;;;;;0.85;0.40;;;13.40;77.90;;;;;;4974372;28;20615;-75
2024/04/14 08:18:31;;;;;;;0.88;0.28;;;13.40;77.50;;;;;;4941329;28;20035;-76
2024/04/14 08:21:00;;;;;;;1.67;0.50;;;13.50;77.50;;;;;;4957169;28;20043;-76
2024/04/14 08:23:26;;;;;;;1.08;0.40;;;13.50;77.30;;;;;;4957171;28;20043;-77
2024/04/14 08:25:52;;;;;;;0.70;0.38;;;13.50;77.20;;;;;;4941409;28;20043;-76
2024/04/14 08:29:15;;;;;;;1.10;0.40;;;13.50;77.10;;;;;;4956838;28;20062;-78
2024/04/14 08:31:43;;;;;;;1.15;0.45;;;13.40;77.30;;;;;;4931573;29;20092;-76
2024/04/14 08:34:09;;;;;;;0.77;0.30;;;13.50;77.40;;;;;;4916881;29;20043;-76
2024/04/14 08:36:35;;;;;;;1.98;0.60;;;13.60;77.30;;;;;;4902435;29;20418;-77
2024/04/14 08:39:01;;;;;;;0.95;0.45;;;13.70;77.10;;;;;;4915616;29;20480;-77
2024/04/14 08:41:34;;;;;;;0.52;0.30;;;13.70;76.80;;;;;;4882961;29;20100;-77
2024/04/14 08:44:41;;;;;;;1.08;0.30;;;13.70;76.80;;;;;;4898677;29;20249;-76
2024/04/14 08:47:21;;;;;;;2.17;0.43;;;13.80;76.70;;;;;;4837222;29;20494;-77
2024/04/14 08:49:48;;;;;;;0.82;0.30;;;13.90;76.60;;;;;;4809856;29;20042;-77
2024/04/14 08:52:15;;;;;;;0.63;0.30;;;14.10;76.60;;;;;;4839673;29;20046;-77
2024/04/14 08:54:46;;;;;;;0.98;0.30;;;14.10;76.50;;;;;;4809688;29;20110;-77
2024/04/14 08:57:13;;;;;;;0.88;0.40;;;14.20;76.30;;;;;;4822462;29;20073;-76
2024/04/14 08:59:42;;;;;;;0.85;0.40;;;14.30;76.10;;;;;;4845354;29;20045;-77
2024/04/14 09:02:10;;;;;;;0.93;0.40;;;14.30;75.90;;;;;;4843154;29;20062;-76
2024/04/14 09:04:37;;;;;;;1.02;0.40;;;14.30;75.80;;;;;;4825704;29;20057;-74
2024/04/14 09:07:02;;;;;;;1.02;0.38;;;14.30;76.00;;;;;;4824897;29;20089;-75
2024/04/14 09:09:29;;;;;;;0.65;0.40;;;14.20;76.10;;;;;;4810419;29;20493;-74
2024/04/14 09:11:56;;;;;;;0.63;0.30;;;14.20;76.10;;;;;;4900487;29;20054;-75
2024/04/14 09:14:22;;;;;;;1.95;0.70;;;14.30;76.00;;;;;;4920704;29;20039;-76
2024/04/14 09:16:49;;;;;;;0.52;0.30;;;14.30;75.90;;;;;;4952563;29;20043;-75
2024/04/14 09:19:17;;;;;;;1.38;0.55;;;14.30;75.80;;;;;;4934920;29;20102;-74
2024/04/14 09:21:43;;;;;;;1.33;0.47;;;14.20;75.90;;;;;;4952752;29;20067;-76
2024/04/14 09:24:09;;;;;;;2.13;0.50;;;14.30;76.10;;;;;;4934986;29;20183;-76
2024/04/14 09:26:35;;;;;;;1.00;0.30;;;14.20;76.20;;;;;;4935505;29;20070;-76
2024/04/14 09:29:04;;;;;;;1.23;0.30;;;14.20;76.00;;;;;;4953772;28;20066;-76
2024/04/14 09:31:29;;;;;;;1.40;0.40;;;14.10;76.00;;;;;;4940523;28;20058;-75
2024/04/14 09:33:56;;;;;;;0.32;0.30;;;14.30;76.10;;;;;;4973625;28;20066;-76
2024/04/14 09:36:24;;;;;;;1.25;0.32;;;14.30;75.70;;;;;;4940324;28;20082;-76
2024/04/14 09:38:52;;;;;;;0.52;0.30;;;14.40;75.50;;;;;;4940284;28;20030;-75
2024/04/14 09:41:20;;;;;;;2.92;0.60;;;14.40;75.50;;;;;;4955883;28;20477;-76
2024/04/14 09:43:46;;;;;;;0.45;0.30;;;14.30;75.50;;;;;;4940304;28;20493;-75
2024/04/14 09:46:14;;;;;;;1.58;0.55;;;14.30;75.60;;;;;;4940312;28;20074;-76
2024/04/14 09:48:42;;;;;;;1.30;0.60;;;14.30;75.50;;;;;;4956541;28;20086;-76
2024/04/14 09:51:09;;;;;;;0.75;0.50;;;14.40;75.30;;;;;;4955777;28;20031;-75
2024/04/14 09:53:35;;;;;;;1.77;0.50;;;14.40;75.00;;;;;;4956574;28;20033;-75
2024/04/14 09:56:02;;;;;;;0.73;0.40;;;14.40;74.80;;;;;;4955952;28;20039;-76
2024/04/14 09:58:28;;;;;;;1.13;0.57;;;14.40;74.80;;;;;;4940382;28;20053;-75
2024/04/14 10:00:58;;;;;;;1.83;0.50;;;14.50;75.00;;;;;;4941907;28;20454;-75
2024/04/14 10:03:27;;;;;;;2.13;0.52;;;14.70;74.80;;;;;;4974832;28;20199;-75
2024/04/14 10:05:55;;;;;;;0.60;0.30;;;14.70;74.50;;;;;;4979300;28;20070;-75
2024/04/14 10:08:21;;;;;;;1.10;0.40;;;14.80;74.40;;;;;;4960485;28;20063;-77
2024/04/14 10:10:46;;;;;;;1.58;0.40;;;14.80;74.40;;;;;;4955550;28;20508;-77
2024/04/14 10:13:13;;;;;;;0.98;0.50;;;14.80;74.40;;;;;;4955687;28;20127;-75
2024/04/14 10:15:44;;;;;;;1.58;0.55;;;14.70;74.40;;;;;;4955408;28;20062;-74
2024/04/14 10:18:14;;;;;;;1.75;0.40;;;14.80;74.40;;;;;;4973079;28;20074;-76
2024/04/14 10:20:42;;;;;;;1.25;0.35;;;14.90;74.40;;;;;;4972979;28;20494;-77
2024/04/14 10:23:08;;;;;;;0.60;0.38;;;15.00;74.30;;;;;;4973406;28;20027;-75
2024/04/14 10:25:44;;;;;;;1.17;0.47;;;15.00;74.00;;;;;;4939635;28;20374;-74
2024/04/14 10:28:19;;;;;;;0.50;0.43;;;15.00;73.70;;;;;;4973200;28;20113;-76
2024/04/14 10:30:45;;;;;;;2.00;0.60;;;15.10;73.60;;;;;;4956096;28;20054;-75
2024/04/14 10:33:20;;;;;;;0.73;0.40;;;15.20;73.60;;;;;;4955396;28;20046;-76
2024/04/14 10:35:46;;;;;;;1.42;0.40;;;15.30;73.30;;;;;;4976418;28;20031;-76
2024/04/14 10:38:20;;;;;;;2.15;0.45;;;15.30;73.10;;;;;;4973007;28;20049;-76
2024/04/14 10:40:46;;;;;;;1.20;0.50;;;15.40;72.80;;;;;;4955142;28;20050;-75
2024/04/14 10:43:13;;;;;;;1.10;0.47;;;15.30;72.80;;;;;;4939968;28;20039;-75
2024/04/14 10:45:39;;;;;;;1.13;0.40;;;15.30;72.60;;;;;;4955066;28;20066;-76
2024/04/14 10:48:06;;;;;;;0.82;0.40;;;15.30;72.60;;;;;;4954959;28;20477;-77
2024/04/14 10:50:32;;;;;;;2.35;0.55;;;15.30;72.50;;;;;;4956021;28;20118;-77
2024/04/14 10:52:58;;;;;;;1.25;0.45;;;15.30;72.40;;;;;;4939204;28;20122;-78
2024/04/14 10:55:25;;;;;;;0.35;0.30;;;15.30;72.30;;;;;;4939310;28;20056;-79
2024/04/14 10:57:51;;;;;;;2.17;0.50;;;15.30;72.20;;;;;;4938934;28;20039;-75
2024/04/14 11:00:17;;;;;;;1.25;0.30;;;15.30;72.00;;;;;;4972106;28;20046;-77
2024/04/14 11:02:44;;;;;;;1.98;0.30;;;15.40;71.80;;;;;;4954909;28;20043;-76
2024/04/14 11:05:10;;;;;;;1.75;0.70;;;15.30;71.50;;;;;;4954969;28;20039;-77
2024/04/14 11:07:40;;;;;;;1.60;0.60;;;15.30;71.50;;;;;;4939306;28;20049;-79
2024/04/14 11:10:07;;;;;;;0.77;0.57;;;15.40;71.80;;;;;;4936908;28;20046;-78
2024/04/14 11:12:34;;;;;;;1.13;0.52;;;15.40;71.00;;;;;;4938871;28;20489;-78
2024/04/14 11:15:03;;;;;;;0.80;0.30;;;15.40;71.00;;;;;;4954820;28;20069;-77
2024/04/14 11:17:29;;;;;;;0.98;0.30;;;15.40;71.00;;;;;;4972434;28;20540;-78
2024/04/14 11:19:57;;;;;;;1.55;0.35;;;15.40;70.80;;;;;;4955425;28;20039;-78
2024/04/14 11:22:23;;;;;;;1.70;0.60;;;15.40;70.50;;;;;;4938688;28;20066;-77
2024/04/14 11:24:53;;;;;;;0.60;0.40;;;15.50;70.10;;;;;;4971994;28;20058;-78
2024/04/14 11:27:20;;;;;;;1.17;0.43;;;15.50;69.80;;;;;;4971724;28;20051;-77
2024/04/14 11:29:46;;;;;;;0.47;0.47;;;15.50;70.00;;;;;;4954635;28;20126;-78
2024/04/14 11:32:32;;;;;;;1.63;0.40;;;15.50;69.90;;;;;;4954885;28;20035;-78
2024/04/14 11:34:59;;;;;;;0.88;0.43;;;15.50;69.80;;;;;;4928252;28;20027;-78
2024/04/14 11:37:29;;;;;;;0.68;0.30;;;15.50;69.50;;;;;;4955072;28;20146;-78
2024/04/14 11:39:57;;;;;;;0.85;0.43;;;15.50;69.40;;;;;;4954820;28;20130;-78
2024/04/14 11:42:24;;;;;;;1.48;0.40;;;15.70;69.40;;;;;;4955122;28;20046;-78
2024/04/14 11:44:50;;;;;;;1.55;0.32;;;15.60;69.30;;;;;;4971815;28;20117;-78
2024/04/14 11:47:17;;;;;;;0.77;0.38;;;15.60;69.10;;;;;;4954364;28;20186;-78
2024/04/14 11:49:44;;;;;;;0.95;0.40;;;15.70;69.20;;;;;;4955133;28;20126;-78
2024/04/14 11:52:10;;;;;;;0.82;0.40;;;15.70;69.10;;;;;;4958525;28;20043;-77
2024/04/14 11:54:36;;;;;;;0.88;0.30;;;15.70;69.10;;;;;;4958372;28;20117;-77
2024/04/14 11:57:02;;;;;;;0.30;0.30;;;15.80;69.00;;;;;;4942208;28;20243;-76
2024/04/14 11:59:27;;;;;;;0.55;0.30;;;16.00;68.70;;;;;;4957583;28;20042;-77
2024/04/14 12:01:53;;;;;;;1.17;0.50;;;15.90;68.50;;;;;;4975185;28;20125;-77
2024/04/14 12:04:19;;;;;;;1.00;0.50;;;16.00;68.40;;;;;;4957528;28;20046;-76
2024/04/14 12:06:45;;;;;;;0.85;0.50;;;16.00;68.30;;;;;;4974790;28;20039;-76
2024/04/14 12:09:11;;;;;;;0.20;0.20;;;16.00;68.30;;;;;;4957716;28;20030;-76
2024/04/14 12:11:36;;;;;;;0.45;0.35;;;16.10;68.30;;;;;;4957727;28;20050;-76
2024/04/14 12:14:02;;;;;;;0.47;0.40;;;16.00;68.20;;;;;;4958119;28;20034;-75
2024/04/14 12:16:28;;;;;;;0.60;0.40;;;16.10;68.10;;;;;;4975337;28;20484;-73
2024/04/14 12:18:54;;;;;;;1.35;0.60;;;16.20;67.90;;;;;;4958400;28;20042;-76
2024/04/14 12:21:20;;;;;;;0.50;0.40;;;16.10;67.50;;;;;;4958619;28;20489;-77
2024/04/14 12:23:46;;;;;;;0.93;0.47;;;16.00;67.60;;;;;;4975347;28;20041;-77
2024/04/14 12:26:14;;;;;;;1.38;0.60;;;16.00;67.70;;;;;;4957842;28;20097;-77
2024/04/14 12:28:40;;;;;;;2.20;0.68;;;16.00;67.70;;;;;;4960887;28;20031;-77
2024/04/14 12:31:06;;;;;;;1.73;0.43;;;15.90;67.70;;;;;;4959462;28;20034;-75
2024/04/14 12:33:31;;;;;;;1.45;0.40;;;15.90;67.60;;;;;;4957393;28;20077;-75
2024/04/14 12:35:57;;;;;;;2.60;0.50;;;16.00;67.80;;;;;;4959454;28;20066;-75
2024/04/14 12:38:23;;;;;;;0.60;0.50;;;16.10;67.80;;;;;;4957418;28;20047;-75
2024/04/14 12:40:48;;;;;;;1.23;0.30;;;16.10;67.60;;;;;;4942291;28;20378;-75
2024/04/14 12:43:14;;;;;;;1.05;0.40;;;16.20;67.50;;;;;;4961201;28;20102;-74
2024/04/14 12:45:43;;;;;;;1.00;0.40;;;16.30;67.30;;;;;;4976036;28;20425;-76